Time;durP1;ratioP1;P1;durP2;ratioP2;P2;SDS_P1;SDS_P2;PMS_P1;PMS_P2;Temp;Humidity;BMP_temperature;BMP_pressure;BME280_temperature;BME280_humidity;BME280_pressure;Samples;Min_cycle;Max_cycle;Signal;HPM_P1;HPM_P2
2023/04/02 00:01:25;;;;;;;;;;;13.80;63.50;;;;;;5073866;28;19904;-79
2023/04/02 00:03:58;;;;;;;;;;;13.80;63.40;;;;;;5073623;28;20313;-78
2023/04/02 00:06:31;;;;;;;;;;;13.80;63.40;;;;;;5073510;28;20014;-79
2023/04/02 00:09:00;;;;;;;;;;;13.80;63.40;;;;;;5075394;28;20340;-79
2023/04/02 00:11:30;;;;;;;;;;;13.80;63.30;;;;;;5077704;28;20022;-78
2023/04/02 00:13:59;;;;;;;;;;;13.80;63.40;;;;;;5077870;28;19905;-79
2023/04/02 00:16:26;;;;;;;;;;;13.80;63.60;;;;;;5077829;28;20385;-79
2023/04/02 00:18:53;;;;;;;;;;;13.80;63.30;;;;;;5077676;28;19905;-80
2023/04/02 00:21:24;;;;;;;;;;;13.80;63.70;;;;;;5077559;28;19909;-79
2023/04/02 00:23:52;;;;;;;;;;;13.80;63.70;;;;;;5059591;28;20019;-79
2023/04/02 00:26:20;;;;;;;;;;;13.80;63.70;;;;;;5077582;28;20278;-79
2023/04/02 00:28:46;;;;;;;;;;;13.80;63.30;;;;;;5077398;28;19962;-79
2023/04/02 00:31:12;;;;;;;;;;;13.80;63.40;;;;;;5077679;28;19944;-79
2023/04/02 00:33:37;;;;;;;;;;;13.80;63.40;;;;;;5077734;28;19940;-79
2023/04/02 00:36:07;;;;;;;;;;;13.80;63.70;;;;;;5062222;28;19927;-79
2023/04/02 00:38:34;;;;;;;;;;;13.80;63.80;;;;;;5077390;28;20327;-80
2023/04/02 00:41:01;;;;;;;;;;;13.80;63.40;;;;;;5077326;28;19919;-79
2023/04/02 00:43:29;;;;;;;;;;;13.80;63.40;;;;;;5077034;28;19905;-79
2023/04/02 00:45:56;;;;;;;;;;;13.80;63.90;;;;;;5077176;28;20346;-79
2023/04/02 00:48:31;;;;;;;;;;;13.80;63.50;;;;;;5076568;28;19963;-79
2023/04/02 00:51:07;;;;;;;;;;;13.80;63.70;;;;;;5076624;28;19939;-79
2023/04/02 00:53:32;;;;;;;;;;;13.80;64.00;;;;;;5076708;28;19911;-80
2023/04/02 00:55:58;;;;;;;;;;;13.80;63.90;;;;;;5075612;28;19905;-79
2023/04/02 00:58:26;;;;;;;;;;;13.90;63.80;;;;;;5076570;28;19957;-78
2023/04/02 01:00:51;;;;;;;;;;;13.80;63.90;;;;;;5076832;28;20268;-79
2023/04/02 01:03:18;;;;;;;;;;;13.80;64.00;;;;;;5076698;28;19905;-79
2023/04/02 01:05:49;;;;;;;;;;;13.80;64.00;;;;;;5076589;28;19916;-79
2023/04/02 01:08:24;;;;;;;;;;;13.80;63.60;;;;;;5076967;28;20004;-79
2023/04/02 01:10:50;;;;;;;;;;;13.80;63.80;;;;;;5075676;28;20073;-79
2023/04/02 01:13:30;;;;;;;;;;;13.80;63.80;;;;;;5076581;28;20366;-79
2023/04/02 01:16:31;;;;;;;;;;;13.80;64.00;;;;;;5076455;28;19904;-79
2023/04/02 01:19:17;;;;;;;;;;;13.80;63.80;;;;;;4978787;28;19913;-79
2023/04/02 01:21:51;;;;;;;;;;;13.80;63.80;;;;;;5069534;28;19904;-79
2023/04/02 01:24:18;;;;;;;;;;;13.80;63.70;;;;;;5076562;28;20239;-79
2023/04/02 01:27:02;;;;;;;;;;;13.80;63.70;;;;;;5075986;28;19920;-79
2023/04/02 01:29:30;;;;;;;;;;;13.70;64.00;;;;;;5075567;28;19915;-79
2023/04/02 01:31:57;;;;;;;;;;;13.70;63.80;;;;;;5076631;28;19904;-78
2023/04/02 01:34:25;;;;;;;;;;;13.70;63.90;;;;;;5076720;28;19913;-79
2023/04/02 01:37:03;;;;;;;;;;;13.70;64.40;;;;;;5089350;28;19923;-79
2023/04/02 01:39:32;;;;;;;;;;;13.70;64.20;;;;;;5096137;28;19911;-79
2023/04/02 01:42:18;;;;;;;;;;;13.70;64.10;;;;;;5096285;28;19904;-79
2023/04/02 01:44:49;;;;;;;;;;;13.70;64.20;;;;;;5044769;28;19911;-79
2023/04/02 01:47:17;;;;;;;;;;;13.60;64.00;;;;;;5096390;28;19927;-78
2023/04/02 01:49:43;;;;;;;;;;;13.60;64.00;;;;;;5096269;28;19912;-79
2023/04/02 01:52:12;;;;;;;;;;;13.60;64.30;;;;;;5096152;28;20419;-78
2023/04/02 01:54:38;;;;;;;;;;;13.60;64.60;;;;;;5077850;28;20389;-79
2023/04/02 01:57:04;;;;;;;;;;;13.60;64.30;;;;;;5095944;28;19947;-78
2023/04/02 01:59:32;;;;;;;;;;;13.60;64.60;;;;;;5077830;28;20382;-79
2023/04/02 02:02:05;;;;;;;;;;;13.60;64.40;;;;;;5096018;28;19910;-79
2023/04/02 02:04:31;;;;;;;;;;;13.60;64.10;;;;;;5095941;28;19943;-79
2023/04/02 02:06:59;;;;;;;;;;;13.60;64.30;;;;;;5095756;28;19955;-79
2023/04/02 02:09:29;;;;;;;;;;;13.60;64.10;;;;;;5095724;28;19907;-79
2023/04/02 02:11:58;;;;;;;;;;;13.60;64.40;;;;;;5095728;28;19954;-79
2023/04/02 02:14:26;;;;;;;;;;;13.60;64.70;;;;;;5095603;28;19949;-79
2023/04/02 02:16:55;;;;;;;;;;;13.50;64.40;;;;;;5095563;28;20255;-79
2023/04/02 02:19:39;;;;;;;;;;;13.50;64.20;;;;;;5095673;28;19904;-79
2023/04/02 02:22:07;;;;;;;;;;;13.50;64.60;;;;;;5095529;28;20273;-78
2023/04/02 02:24:34;;;;;;;;;;;13.50;64.70;;;;;;5095356;28;19904;-79
2023/04/02 02:27:21;;;;;;;;;;;13.50;64.40;;;;;;5095553;28;20396;-79
2023/04/02 02:29:54;;;;;;;;;;;13.50;64.80;;;;;;5095786;28;19931;-79
2023/04/02 02:32:21;;;;;;;;;;;13.50;64.50;;;;;;5094983;28;20370;-79
2023/04/02 02:34:51;;;;;;;;;;;13.50;64.70;;;;;;5095214;28;19912;-78
2023/04/02 02:37:21;;;;;;;;;;;13.50;64.70;;;;;;5060536;28;19916;-78
2023/04/02 02:39:50;;;;;;;;;;;13.50;64.20;;;;;;5074728;28;20389;-79
2023/04/02 02:42:22;;;;;;;;;;;13.50;64.10;;;;;;5074804;28;19965;-79
2023/04/02 02:44:48;;;;;;;;;;;13.40;64.50;;;;;;5074647;28;19904;-78
2023/04/02 02:47:23;;;;;;;;;;;13.40;64.60;;;;;;5056763;28;19909;-78
2023/04/02 02:49:51;;;;;;;;;;;13.40;64.50;;;;;;5074508;28;19962;-78
2023/04/02 02:52:18;;;;;;;;;;;13.40;64.70;;;;;;5074942;28;19936;-78
2023/04/02 02:54:49;;;;;;;;;;;13.40;64.70;;;;;;5090271;28;19915;-79
2023/04/02 02:57:22;;;;;;;;;;;13.40;64.70;;;;;;5095039;28;20033;-79
2023/04/02 02:59:48;;;;;;;;;;;13.40;64.60;;;;;;5094724;28;19995;-79
2023/04/02 03:02:15;;;;;;;;;;;13.30;65.00;;;;;;5094742;28;19904;-79
2023/04/02 03:04:45;;;;;;;;;;;13.30;65.10;;;;;;5076661;28;19908;-79
2023/04/02 03:07:12;;;;;;;;;;;13.30;65.30;;;;;;5094605;28;19912;-79
2023/04/02 03:09:47;;;;;;;;;;;13.30;64.90;;;;;;5076889;28;19908;-79
2023/04/02 03:12:31;;;;;;;;;;;13.30;64.60;;;;;;5094668;28;19911;-79
2023/04/02 03:15:15;;;;;;;;;;;13.30;65.10;;;;;;5094751;28;19904;-78
2023/04/02 03:17:44;;;;;;;;;;;13.30;64.80;;;;;;5094414;28;19926;-78
2023/04/02 03:20:14;;;;;;;;;;;13.30;64.90;;;;;;5094561;28;19910;-78
2023/04/02 03:22:42;;;;;;;;;;;13.30;65.20;;;;;;5094413;28;20342;-79
2023/04/02 03:25:11;;;;;;;;;;;13.30;65.30;;;;;;5074467;28;19904;-79
2023/04/02 03:27:41;;;;;;;;;;;13.30;65.20;;;;;;5094456;28;19950;-79
2023/04/02 03:30:13;;;;;;;;;;;13.20;65.20;;;;;;5094120;28;19908;-80
2023/04/02 03:32:41;;;;;;;;;;;13.30;65.40;;;;;;5073823;28;19909;-79
2023/04/02 03:35:18;;;;;;;;;;;13.30;65.50;;;;;;5074056;28;20274;-79
2023/04/02 03:37:57;;;;;;;;;;;13.30;65.40;;;;;;5073940;28;20313;-79
2023/04/02 03:40:25;;;;;;;;;;;13.30;65.30;;;;;;5073025;28;19927;-79
2023/04/02 03:42:57;;;;;;;;;;;13.30;65.20;;;;;;5073412;28;20353;-78
2023/04/02 03:45:31;;;;;;;;;;;13.30;65.10;;;;;;5072715;28;19923;-79
2023/04/02 03:48:14;;;;;;;;;;;13.30;65.20;;;;;;5072493;28;20338;-79
2023/04/02 03:51:00;;;;;;;;;;;13.20;65.30;;;;;;5073774;28;20370;-79
2023/04/02 03:53:26;;;;;;;;;;;13.30;65.20;;;;;;5074048;28;19997;-79
2023/04/02 03:55:52;;;;;;;;;;;13.20;65.20;;;;;;5072561;28;19905;-80
2023/04/02 03:58:20;;;;;;;;;;;13.20;65.30;;;;;;5073701;28;20281;-78
2023/04/02 04:00:59;;;;;;;;;;;13.20;65.10;;;;;;5079014;28;19915;-80
2023/04/02 04:03:27;;;;;;;;;;;13.20;65.50;;;;;;5092131;28;19911;-79
2023/04/02 04:06:19;;;;;;;;;;;13.20;65.30;;;;;;5082946;28;19952;-79
2023/04/02 04:08:50;;;;;;;;;;;13.20;65.20;;;;;;5080105;28;19911;-79
2023/04/02 04:11:18;;;;;;;;;;;13.20;64.90;;;;;;5082771;28;20369;-79
2023/04/02 04:13:57;;;;;;;;;;;13.20;65.20;;;;;;5084465;28;19904;-79
2023/04/02 04:16:30;;;;;;;;;;;13.20;65.20;;;;;;5082784;28;19910;-79
2023/04/02 04:19:02;;;;;;;;;;;13.20;65.10;;;;;;5082290;28;19912;-79
2023/04/02 04:21:37;;;;;;;;;;;13.20;65.40;;;;;;5084136;28;20000;-79
2023/04/02 04:24:04;;;;;;;;;;;13.20;65.50;;;;;;5083152;28;19904;-80
2023/04/02 04:26:34;;;;;;;;;;;13.20;65.60;;;;;;5083873;28;19965;-79
2023/04/02 04:29:04;;;;;;;;;;;13.20;65.40;;;;;;5093909;28;20281;-79
2023/04/02 04:31:40;;;;;;;;;;;13.20;65.70;;;;;;5093653;28;20346;-79
2023/04/02 04:34:10;;;;;;;;;;;13.20;65.50;;;;;;5092617;28;19983;-79
2023/04/02 04:36:40;;;;;;;;;;;13.20;64.90;;;;;;5093894;28;19923;-77
2023/04/02 04:39:13;;;;;;;;;;;13.30;65.20;;;;;;5093718;28;19913;-74
2023/04/02 04:41:40;;;;;;;;;;;13.20;65.20;;;;;;5093939;28;20329;-72
2023/04/02 04:44:22;;;;;;;;;;;13.20;65.20;;;;;;5093657;28;19943;-77
2023/04/02 04:46:54;;;;;;;;;;;13.20;65.70;;;;;;5093779;28;19912;-72
2023/04/02 04:49:23;;;;;;;;;;;13.30;66.00;;;;;;5093788;28;19948;-79
2023/04/02 04:51:56;;;;;;;;;;;13.30;65.80;;;;;;5093802;28;20369;-76
2023/04/02 04:54:24;;;;;;;;;;;13.30;66.20;;;;;;5076023;28;19904;-77
2023/04/02 04:56:54;;;;;;;;;;;13.40;65.40;;;;;;5097518;28;19962;-77
2023/04/02 04:59:21;;;;;;;;;;;13.40;65.70;;;;;;5097381;28;20354;-78
2023/04/02 05:01:50;;;;;;;;;;;13.40;65.60;;;;;;5097232;28;19904;-77
2023/04/02 05:04:30;;;;;;;;;;;13.40;65.60;;;;;;5067716;28;19908;-80
2023/04/02 05:07:04;;;;;;;;;;;13.40;65.40;;;;;;5094817;28;20352;-79
2023/04/02 05:09:37;;;;;;;;;;;13.40;65.50;;;;;;5097662;28;19908;-80
2023/04/02 05:12:22;;;;;;;;;;;13.40;65.50;;;;;;5097172;28;19927;-78
2023/04/02 05:14:48;;;;;;;;;;;13.40;65.50;;;;;;5082263;28;19911;-78
2023/04/02 05:17:25;;;;;;;;;;;13.40;65.20;;;;;;5097104;28;19908;-78
2023/04/02 05:19:55;;;;;;;;;;;13.40;65.40;;;;;;5096865;28;19904;-78
2023/04/02 05:22:32;;;;;;;;;;;13.40;65.40;;;;;;5097239;28;19904;-78
2023/04/02 05:24:57;;;;;;;;;;;13.30;65.20;;;;;;5097030;28;19911;-72
2023/04/02 05:27:30;;;;;;;;;;;13.40;65.70;;;;;;5096917;28;20374;-70
2023/04/02 05:30:08;;;;;;;;;;;13.40;65.40;;;;;;5096530;28;19904;-68
2023/04/02 05:32:36;;;;;;;;;;;13.30;65.30;;;;;;5079380;28;19909;-71
2023/04/02 05:35:05;;;;;;;;;;;13.40;65.70;;;;;;5080980;28;19921;-72
2023/04/02 05:37:31;;;;;;;;;;;13.40;65.40;;;;;;5091211;28;19916;-70
2023/04/02 05:39:59;;;;;;;;;;;13.40;65.30;;;;;;5096246;28;19904;-78
2023/04/02 05:42:29;;;;;;;;;;;13.30;65.30;;;;;;5094798;28;19904;-78
2023/04/02 05:45:15;;;;;;;;;;;13.30;65.40;;;;;;5096607;28;20220;-78
2023/04/02 05:47:42;;;;;;;;;;;13.30;65.40;;;;;;5085518;28;19919;-79
2023/04/02 05:50:08;;;;;;;;;;;13.30;65.30;;;;;;5096669;28;19911;-78
2023/04/02 05:52:36;;;;;;;;;;;13.30;65.30;;;;;;5096409;28;19904;-78
2023/04/02 05:55:05;;;;;;;;;;;13.30;65.50;;;;;;5095973;28;19946;-79
2023/04/02 05:57:34;;;;;;;;;;;13.30;65.10;;;;;;5096371;28;19950;-80
2023/04/02 06:00:04;;;;;;;;;;;13.30;65.40;;;;;;5095220;28;20023;-79
2023/04/02 06:02:41;;;;;;;;;;;13.30;65.50;;;;;;5096129;28;19908;-79
2023/04/02 06:05:21;;;;;;;;;;;13.30;65.50;;;;;;5096053;28;20254;-79
2023/04/02 06:08:02;;;;;;;;;;;13.30;65.30;;;;;;5095766;28;19912;-79
2023/04/02 06:10:30;;;;;;;;;;;13.30;65.40;;;;;;5095247;28;20267;-79
2023/04/02 06:13:01;;;;;;;;;;;13.30;65.40;;;;;;5095844;28;19957;-79
2023/04/02 06:15:26;;;;;;;;;;;13.30;65.40;;;;;;5096193;28;19904;-79
2023/04/02 06:17:59;;;;;;;;;;;13.30;65.70;;;;;;5095948;28;20373;-77
2023/04/02 06:20:25;;;;;;;;;;;13.20;65.40;;;;;;5094976;28;20016;-78
2023/04/02 06:22:55;;;;;;;;;;;13.20;65.40;;;;;;5095919;28;20354;-78
2023/04/02 06:25:33;;;;;;;;;;;13.20;65.60;;;;;;5095891;28;19905;-78
2023/04/02 06:28:00;;;;;;;;;;;13.20;65.40;;;;;;5095521;28;19912;-78
2023/04/02 06:30:30;;;;;;;;;;;13.20;65.30;;;;;;5094308;28;20257;-79
2023/04/02 06:32:55;;;;;;;;;;;13.20;65.60;;;;;;5096020;28;19908;-78
2023/04/02 06:35:21;;;;;;;;;;;13.20;65.50;;;;;;5095240;28;20061;-77
2023/04/02 06:37:48;;;;;;;;;;;13.20;65.70;;;;;;5095832;28;20406;-84
2023/04/02 06:40:32;;;;;;;;;;;13.20;65.80;;;;;;5095547;28;19961;-79
2023/04/02 06:42:59;;;;;;;;;;;13.20;66.00;;;;;;5095006;28;19911;-76
2023/04/02 06:45:27;;;;;;;;;;;13.20;66.20;;;;;;5095283;28;20388;-77
2023/04/02 06:47:55;;;;;;;;;;;13.30;66.30;;;;;;5095187;28;19911;-77
2023/04/02 06:50:25;;;;;;;;;;;13.30;66.70;;;;;;5095033;28;19904;-77
2023/04/02 06:52:53;;;;;;;;;;;13.40;66.40;;;;;;5094951;28;19926;-77
2023/04/02 06:55:26;;;;;;;;;;;13.40;66.40;;;;;;5094708;28;19904;-78
2023/04/02 06:57:51;;;;;;;;;;;13.50;66.70;;;;;;5094978;28;20347;-78
2023/04/02 07:00:32;;;;;;;;;;;13.50;66.40;;;;;;5110875;28;19904;-77
2023/04/02 07:02:58;;;;;;;;;;;13.50;66.40;;;;;;5095429;28;19904;-77
2023/04/02 07:05:23;;;;;;;;;;;13.60;66.50;;;;;;5095081;28;19926;-78
2023/04/02 07:07:49;;;;;;;;;;;13.70;66.40;;;;;;5094596;28;19912;-78
2023/04/02 07:10:14;;;;;;;;;;;13.70;66.30;;;;;;5094661;28;19904;-78
2023/04/02 07:12:40;;;;;;;;;;;13.80;66.20;;;;;;5076849;28;19914;-77
2023/04/02 07:15:06;;;;;;;;;;;13.80;66.10;;;;;;5094867;28;19904;-77
2023/04/02 07:17:31;;;;;;;;;;;13.90;66.30;;;;;;5094517;28;19939;-77
2023/04/02 07:19:57;;;;;;;;;;;14.00;65.70;;;;;;5094672;28;19994;-77
2023/04/02 07:22:24;;;;;;;;;;;14.00;65.80;;;;;;5110452;28;19910;-77
2023/04/02 07:24:50;;;;;;;;;;;14.00;65.80;;;;;;5094921;28;20347;-77
2023/04/02 07:27:15;;;;;;;;;;;14.10;65.70;;;;;;5094654;28;19957;-78
2023/04/02 07:29:43;;;;;;;;;;;14.20;65.70;;;;;;5094671;28;19908;-78
2023/04/02 07:32:10;;;;;;;;;;;14.20;65.50;;;;;;5094364;28;19904;-78
2023/04/02 07:34:36;;;;;;;;;;;14.20;65.50;;;;;;5094589;28;19912;-78
2023/04/02 07:37:01;;;;;;;;;;;14.20;65.40;;;;;;5094600;28;19923;-78
2023/04/02 07:39:27;;;;;;;;;;;14.20;65.40;;;;;;5076318;28;19991;-78
2023/04/02 07:41:56;;;;;;;;;;;14.20;65.30;;;;;;5094535;28;19934;-78
2023/04/02 07:44:22;;;;;;;;;;;14.30;65.20;;;;;;5076364;28;20330;-78
2023/04/02 07:46:47;;;;;;;;;;;14.30;65.30;;;;;;5094375;28;19965;-77
2023/04/02 07:49:13;;;;;;;;;;;14.30;65.10;;;;;;5094192;28;19935;-77
2023/04/02 07:51:38;;;;;;;;;;;14.30;65.10;;;;;;5094215;28;19904;-78
2023/04/02 07:54:04;;;;;;;;;;;14.30;65.20;;;;;;5094319;28;20266;-78
2023/04/02 07:56:30;;;;;;;;;;;14.40;65.20;;;;;;5094818;28;19914;-78
2023/04/02 07:58:56;;;;;;;;;;;14.40;65.10;;;;;;5094246;28;19950;-79
2023/04/02 08:01:23;;;;;;;;;;;14.40;64.90;;;;;;5094102;28;20278;-77
2023/04/02 08:03:49;;;;;;;;;;;14.40;65.00;;;;;;5094339;28;19904;-78
2023/04/02 08:06:15;;;;;;;;;;;14.50;65.00;;;;;;5093799;28;20027;-78
2023/04/02 08:08:40;;;;;;;;;;;14.50;64.90;;;;;;5094648;28;19987;-77
2023/04/02 08:11:06;;;;;;;;;;;14.50;64.80;;;;;;5093961;28;19964;-78
2023/04/02 08:13:32;;;;;;;;;;;14.50;64.80;;;;;;5094197;28;20041;-77
2023/04/02 08:15:58;;;;;;;;;;;14.50;64.80;;;;;;5093936;28;20377;-78
2023/04/02 08:18:24;;;;;;;;;;;14.60;64.70;;;;;;5094077;28;19908;-77
2023/04/02 08:20:49;;;;;;;;;;;14.60;64.70;;;;;;5093711;28;19908;-78
2023/04/02 08:23:16;;;;;;;;;;;14.60;64.40;;;;;;5076075;28;20272;-76
2023/04/02 08:25:42;;;;;;;;;;;14.60;64.50;;;;;;5094227;28;20303;-77
2023/04/02 08:28:08;;;;;;;;;;;14.50;64.50;;;;;;5094437;28;19936;-77
2023/04/02 08:30:33;;;;;;;;;;;14.50;64.50;;;;;;5096662;28;19950;-78
2023/04/02 08:32:59;;;;;;;;;;;14.60;64.50;;;;;;5079658;28;20008;-78
2023/04/02 08:35:25;;;;;;;;;;;14.50;64.40;;;;;;5097296;28;19957;-78
2023/04/02 08:37:50;;;;;;;;;;;14.50;64.30;;;;;;5097867;28;19949;-77
2023/04/02 08:40:36;;;;;;;;;;;14.50;64.40;;;;;;5097852;28;20470;-77
2023/04/02 08:43:27;;;;;;;;;;;14.50;64.40;;;;;;5097888;28;19911;-77
2023/04/02 08:46:11;;;;;;;;;;;14.40;64.40;;;;;;5097644;28;20300;-77
2023/04/02 08:48:38;;;;;;;;;;;14.40;64.40;;;;;;5097863;28;19903;-77
2023/04/02 08:51:05;;;;;;;;;;;14.40;64.40;;;;;;5097367;28;19904;-77
2023/04/02 08:53:36;;;;;;;;;;;14.30;64.40;;;;;;5097412;28;19904;-78
2023/04/02 08:56:04;;;;;;;;;;;14.30;64.60;;;;;;5097443;28;19904;-77
2023/04/02 08:58:40;;;;;;;;;;;14.30;64.90;;;;;;5097394;28;19942;-77
2023/04/02 09:01:09;;;;;;;;;;;14.40;64.50;;;;;;5097423;28;19904;-78
2023/04/02 09:03:40;;;;;;;;;;;14.40;64.60;;;;;;5097436;28;19904;-77
2023/04/02 09:06:08;;;;;;;;;;;14.40;64.60;;;;;;5096901;28;20278;-77
2023/04/02 09:08:35;;;;;;;;;;;14.50;64.50;;;;;;5096959;28;20408;-77
2023/04/02 09:11:00;;;;;;;;;;;14.50;64.30;;;;;;5096944;28;20326;-77
2023/04/02 09:13:27;;;;;;;;;;;14.50;64.20;;;;;;5079017;28;19911;-79
2023/04/02 09:15:57;;;;;;;;;;;14.60;64.20;;;;;;5096955;28;20345;-78
2023/04/02 09:18:23;;;;;;;;;;;14.60;64.20;;;;;;5096935;28;20354;-78
2023/04/02 09:20:49;;;;;;;;;;;14.60;64.20;;;;;;5097005;28;19904;-77
2023/04/02 09:23:18;;;;;;;;;;;14.70;64.20;;;;;;5096854;28;20257;-77
2023/04/02 09:25:46;;;;;;;;;;;14.70;64.00;;;;;;5096976;28;19904;-77
2023/04/02 09:28:13;;;;;;;;;;;14.80;64.10;;;;;;5078696;28;19911;-77
2023/04/02 09:30:41;;;;;;;;;;;14.80;63.90;;;;;;5096671;28;19911;-77
2023/04/02 09:33:07;;;;;;;;;;;14.90;63.90;;;;;;5096630;28;19908;-78
2023/04/02 09:35:52;;;;;;;;;;;14.90;63.80;;;;;;5096561;28;20407;-76
2023/04/02 09:38:19;;;;;;;;;;;15.00;63.70;;;;;;5096948;28;19955;-77
2023/04/02 09:40:47;;;;;;;;;;;15.00;63.50;;;;;;5095876;28;20263;-77
2023/04/02 09:43:14;;;;;;;;;;;15.10;63.60;;;;;;5096367;28;19956;-77
2023/04/02 09:45:41;;;;;;;;;;;15.20;63.50;;;;;;5096443;28;20014;-77
2023/04/02 09:48:20;;;;;;;;;;;15.20;63.40;;;;;;5096512;28;19904;-77
2023/04/02 09:50:46;;;;;;;;;;;15.40;63.40;;;;;;5096981;28;20346;-77
2023/04/02 09:53:25;;;;;;;;;;;15.50;63.40;;;;;;5096387;28;19904;-78
2023/04/02 09:56:06;;;;;;;;;;;15.60;63.20;;;;;;5096260;28;19910;-77
2023/04/02 09:58:31;;;;;;;;;;;15.70;63.00;;;;;;5096134;28;19908;-77
2023/04/02 10:00:57;;;;;;;;;;;15.80;62.80;;;;;;5096115;28;19911;-77
2023/04/02 10:03:27;;;;;;;;;;;15.80;62.50;;;;;;5096539;28;19904;-77
2023/04/02 10:06:07;;;;;;;;;;;15.90;62.40;;;;;;5095861;28;19904;-77
2023/04/02 10:08:34;;;;;;;;;;;15.90;62.20;;;;;;5096049;28;19911;-77
2023/04/02 10:11:01;;;;;;;;;;;15.90;62.20;;;;;;5096033;28;19908;-77
2023/04/02 10:13:28;;;;;;;;;;;15.80;62.20;;;;;;5095703;28;19911;-78
2023/04/02 10:15:57;;;;;;;;;;;15.90;62.30;;;;;;5096025;28;19904;-79
2023/04/02 10:18:38;;;;;;;;;;;15.90;62.20;;;;;;5077701;28;19912;-76
2023/04/02 10:21:05;;;;;;;;;;;15.90;62.30;;;;;;5096132;28;19947;-77
2023/04/02 10:23:31;;;;;;;;;;;15.90;62.20;;;;;;5095860;28;19908;-77
2023/04/02 10:26:04;;;;;;;;;;;15.90;62.20;;;;;;5095311;28;19915;-77
2023/04/02 10:28:54;;;;;;;;;;;15.90;62.20;;;;;;5095744;28;19904;-77
2023/04/02 10:31:24;;;;;;;;;;;15.90;62.20;;;;;;5096025;28;20296;-77
2023/04/02 10:33:50;;;;;;;;;;;15.90;62.10;;;;;;5096000;28;19947;-77
2023/04/02 10:36:29;;;;;;;;;;;15.90;62.10;;;;;;5095522;28;19920;-78
2023/04/02 10:39:00;;;;;;;;;;;15.90;62.00;;;;;;5095889;28;19904;-78
2023/04/02 10:41:42;;;;;;;;;;;15.90;61.90;;;;;;5077114;28;19904;-78
2023/04/02 10:44:15;;;;;;;;;;;15.90;61.90;;;;;;5111345;28;19904;-77
2023/04/02 10:46:59;;;;;;;;;;;15.90;61.90;;;;;;5095552;28;19916;-76
2023/04/02 10:49:27;;;;;;;;;;;15.80;61.80;;;;;;5095371;28;19930;-77
2023/04/02 10:51:56;;;;;;;;;;;15.80;61.80;;;;;;5095151;28;19911;-77
2023/04/02 10:54:26;;;;;;;;;;;15.80;61.90;;;;;;5095157;28;19907;-77
2023/04/02 10:56:53;;;;;;;;;;;15.80;61.90;;;;;;5095109;28;19911;-77
2023/04/02 10:59:27;;;;;;;;;;;15.80;61.90;;;;;;5095079;28;19904;-78
2023/04/02 11:01:54;;;;;;;;;;;15.80;62.00;;;;;;5095302;28;19904;-78
2023/04/02 11:04:22;;;;;;;;;;;15.90;62.00;;;;;;5095176;28;19908;-78
2023/04/02 11:06:51;;;;;;;;;;;15.90;61.90;;;;;;5094879;28;19919;-78
2023/04/02 11:09:18;;;;;;;;;;;15.90;61.90;;;;;;5110725;28;20468;-77
2023/04/02 11:11:45;;;;;;;;;;;15.90;62.30;;;;;;5095085;28;20630;-78
2023/04/02 11:14:15;;;;;;;;;;;15.90;62.30;;;;;;5094868;28;19915;-77
2023/04/02 11:16:41;;;;;;;;;;;15.90;61.70;;;;;;5094585;28;20003;-77
2023/04/02 11:19:13;;;;;;;;;;;15.90;61.70;;;;;;5094863;28;19963;-77
2023/04/02 11:21:43;;;;;;;;;;;16.00;61.70;;;;;;5094937;28;19911;-76
2023/04/02 11:24:28;;;;;;;;;;;16.00;62.20;;;;;;5094272;28;19904;-77
2023/04/02 11:27:03;;;;;;;;;;;16.00;61.60;;;;;;5076234;28;19912;-77
2023/04/02 11:29:30;;;;;;;;;;;15.90;61.50;;;;;;5094288;28;19990;-77
2023/04/02 11:32:26;;;;;;;;;;;15.90;61.40;;;;;;5094408;28;19904;-78
2023/04/02 11:34:54;;;;;;;;;;;15.90;61.40;;;;;;5065248;28;20422;-78
2023/04/02 11:37:39;;;;;;;;;;;15.90;61.40;;;;;;5094664;28;20095;-77
2023/04/02 11:40:10;;;;;;;;;;;15.90;61.50;;;;;;5094527;28;19904;-77
2023/04/02 11:42:42;;;;;;;;;;;15.80;61.40;;;;;;5094470;28;20377;-76
2023/04/02 11:45:22;;;;;;;;;;;15.80;61.40;;;;;;5093999;28;19904;-76
2023/04/02 11:48:00;;;;;;;;;;;15.80;61.40;;;;;;5094362;28;19919;-77
2023/04/02 11:50:31;;;;;;;;;;;15.80;61.40;;;;;;5094373;28;19950;-77
2023/04/02 11:53:02;;;;;;;;;;;15.70;61.40;;;;;;5094283;28;19916;-77
2023/04/02 11:55:32;;;;;;;;;;;15.70;61.40;;;;;;5094149;28;20350;-78
2023/04/02 11:58:03;;;;;;;;;;;15.70;61.40;;;;;;5094194;28;19904;-78
2023/04/02 12:00:49;;;;;;;;;;;15.60;61.50;;;;;;5094061;28;19904;-78
2023/04/02 12:03:28;;;;;;;;;;;15.60;61.50;;;;;;5053024;28;19904;-77
2023/04/02 12:05:57;;;;;;;;;;;15.60;61.50;;;;;;5082010;28;19911;-77
2023/04/02 12:08:22;;;;;;;;;;;15.60;61.60;;;;;;5100480;28;19904;-77
2023/04/02 12:10:49;;;;;;;;;;;15.50;61.60;;;;;;5101260;28;19904;-78
2023/04/02 12:13:18;;;;;;;;;;;15.50;61.70;;;;;;5082540;28;19972;-78
2023/04/02 12:15:45;;;;;;;;;;;15.50;61.70;;;;;;5082572;28;19927;-78
2023/04/02 12:18:13;;;;;;;;;;;15.50;61.70;;;;;;5100773;28;19915;-77
2023/04/02 12:20:41;;;;;;;;;;;15.50;61.60;;;;;;5100738;28;19957;-78
2023/04/02 12:23:14;;;;;;;;;;;15.50;61.60;;;;;;5100619;28;19964;-77
2023/04/02 12:25:53;;;;;;;;;;;15.50;61.60;;;;;;5100542;28;19953;-77
2023/04/02 12:28:21;;;;;;;;;;;15.50;61.60;;;;;;5100473;28;20289;-78
2023/04/02 12:30:47;;;;;;;;;;;15.50;61.70;;;;;;5100646;28;19910;-78
2023/04/02 12:33:14;;;;;;;;;;;15.50;61.60;;;;;;5100821;28;19908;-77
2023/04/02 12:35:40;;;;;;;;;;;15.50;61.50;;;;;;5100659;28;19920;-78
2023/04/02 12:38:17;;;;;;;;;;;15.40;61.30;;;;;;5100917;28;19908;-78
2023/04/02 12:40:50;;;;;;;;;;;15.40;61.20;;;;;;5100643;28;19983;-77
2023/04/02 12:43:26;;;;;;;;;;;15.40;61.30;;;;;;5100311;28;20370;-77
2023/04/02 12:45:53;;;;;;;;;;;15.30;61.20;;;;;;5100488;28;19904;-78
2023/04/02 12:48:18;;;;;;;;;;;15.30;61.30;;;;;;5100162;28;19908;-78
2023/04/02 12:50:44;;;;;;;;;;;15.30;61.30;;;;;;5100579;28;19912;-78
2023/04/02 12:53:21;;;;;;;;;;;15.20;61.30;;;;;;5100517;28;20006;-77
2023/04/02 12:55:48;;;;;;;;;;;15.20;61.20;;;;;;5082646;28;19911;-77
2023/04/02 12:58:24;;;;;;;;;;;15.20;61.30;;;;;;5100402;28;19998;-78
2023/04/02 13:00:50;;;;;;;;;;;15.20;61.30;;;;;;5100225;28;19908;-79
2023/04/02 13:03:17;;;;;;;;;;;15.20;61.30;;;;;;5100392;28;20042;-78
2023/04/02 13:05:49;;;;;;;;;;;15.10;61.30;;;;;;5082440;28;19909;-76
2023/04/02 13:08:16;;;;;;;;;;;15.10;61.30;;;;;;5081876;28;19912;-78
2023/04/02 13:10:42;;;;;;;;;;;15.10;61.40;;;;;;5100453;28;19904;-77
2023/04/02 13:13:12;;;;;;;;;;;15.10;61.30;;;;;;5100337;28;19927;-78
2023/04/02 13:15:37;;;;;;;;;;;15.00;61.30;;;;;;5081783;28;19903;-77
2023/04/02 13:18:12;;;;;;;;;;;15.00;61.40;;;;;;5097500;28;20433;-78
2023/04/02 13:20:38;;;;;;;;;;;15.00;61.40;;;;;;5096740;28;19904;-78
2023/04/02 13:23:22;;;;;;;;;;;15.00;61.50;;;;;;5096975;28;19904;-78
2023/04/02 13:25:48;;;;;;;;;;;15.00;61.50;;;;;;5096931;28;19904;-77
2023/04/02 13:28:14;;;;;;;;;;;15.00;61.50;;;;;;5096810;28;19904;-77
2023/04/02 13:30:39;;;;;;;;;;;15.00;61.50;;;;;;5096655;28;20003;-76
2023/04/02 13:33:05;;;;;;;;;;;15.00;61.60;;;;;;5096953;28;19904;-77
2023/04/02 13:35:31;;;;;;;;;;;15.00;61.50;;;;;;5096253;28;19920;-77
2023/04/02 13:37:56;;;;;;;;;;;15.00;61.50;;;;;;5096696;28;19962;-78
2023/04/02 13:40:22;;;;;;;;;;;15.00;61.50;;;;;;5096519;28;19915;-78
2023/04/02 13:42:48;;;;;;;;;;;15.00;61.60;;;;;;5096718;28;19904;-76
2023/04/02 13:45:20;;;;;;;;;;;14.90;61.70;;;;;;5096486;28;19904;-78
2023/04/02 13:47:46;;;;;;;;;;;14.90;61.70;;;;;;5096187;28;20061;-77
2023/04/02 13:50:16;;;;;;;;;;;14.90;61.80;;;;;;5096526;28;20376;-78
2023/04/02 13:52:42;;;;;;;;;;;14.90;61.90;;;;;;5096374;28;19911;-78
2023/04/02 13:55:09;;;;;;;;;;;14.90;62.50;;;;;;5096341;28;19904;-76
2023/04/02 13:57:35;;;;;;;;;;;14.80;61.80;;;;;;5096091;28;20349;-77
2023/04/02 14:00:01;;;;;;;;;;;14.80;61.80;;;;;;5096411;28;19908;-77
2023/04/02 14:02:26;;;;;;;;;;;14.80;62.00;;;;;;5077875;28;19927;-77
2023/04/02 14:05:01;;;;;;;;;;;14.80;62.00;;;;;;5096759;28;19904;-78
2023/04/02 14:07:59;;;;;;;;;;;14.80;62.00;;;;;;5112121;28;19959;-78
2023/04/02 14:10:31;;;;;;;;;;;14.80;62.10;;;;;;5050676;28;20372;-78
2023/04/02 14:13:00;;;;;;;;;;;14.80;62.00;;;;;;5096103;28;19911;-78
2023/04/02 14:15:35;;;;;;;;;;;14.80;62.00;;;;;;5095920;28;19928;-77
2023/04/02 14:18:17;;;;;;;;;;;14.80;62.00;;;;;;5095731;28;19936;-77
2023/04/02 14:21:01;;;;;;;;;;;14.80;62.00;;;;;;5095828;28;19907;-77
2023/04/02 14:23:45;;;;;;;;;;;14.80;62.00;;;;;;5095562;28;20410;-78
2023/04/02 14:26:40;;;;;;;;;;;14.80;62.00;;;;;;5095632;28;19912;-78
2023/04/02 14:29:06;;;;;;;;;;;14.70;62.10;;;;;;5077533;28;19904;-77
2023/04/02 14:31:33;;;;;;;;;;;14.70;62.10;;;;;;5095328;28;19904;-77
2023/04/02 14:34:11;;;;;;;;;;;14.70;62.10;;;;;;5095999;28;19904;-77
2023/04/02 14:36:43;;;;;;;;;;;14.70;62.00;;;;;;5086154;28;19920;-77